createdAt,value
2023-12-03T00:01:58.063Z,15.00
2023-12-03T00:04:26.217Z,14.73
2023-12-03T00:06:55.635Z,14.90
2023-12-03T00:09:23.398Z,15.20
2023-12-03T00:11:51.484Z,13.63
2023-12-03T00:14:19.135Z,13.90
2023-12-03T00:16:47.064Z,16.00
2023-12-03T00:19:14.892Z,14.50
2023-12-03T00:21:43.007Z,16.60
2023-12-03T00:24:12.131Z,15.70
2023-12-03T00:26:40.184Z,14.23
2023-12-03T00:29:07.872Z,13.17
2023-12-03T00:31:36.847Z,14.40
2023-12-03T00:34:04.604Z,14.33
2023-12-03T00:36:34.239Z,14.70
2023-12-03T00:39:02.883Z,14.17
2023-12-03T00:41:35.209Z,15.10
2023-12-03T00:44:03.432Z,14.03
2023-12-03T00:46:31.061Z,15.60
2023-12-03T00:49:01.492Z,13.53
2023-12-03T00:51:29.285Z,13.53
2023-12-03T00:53:59.944Z,15.07
2023-12-03T00:56:27.782Z,15.53
2023-12-03T00:58:57.525Z,14.27
2023-12-03T01:01:25.242Z,13.50
2023-12-03T01:03:54.250Z,14.23
2023-12-03T01:06:21.906Z,14.17
2023-12-03T01:08:49.752Z,14.37
2023-12-03T01:11:34.410Z,14.30
2023-12-03T01:14:05.953Z,14.70
2023-12-03T01:16:33.946Z,14.47
2023-12-03T01:19:02.210Z,14.73
2023-12-03T01:21:30.245Z,14.03
2023-12-03T01:23:58.149Z,15.20
2023-12-03T01:26:25.933Z,14.63
2023-12-03T01:28:54.447Z,14.07
2023-12-03T01:31:23.833Z,14.87
2023-12-03T01:33:51.726Z,15.43
2023-12-03T01:36:19.547Z,14.03
2023-12-03T01:38:47.331Z,15.10
2023-12-03T01:41:15.108Z,14.10
2023-12-03T01:43:50.166Z,14.53
2023-12-03T01:46:18.300Z,15.67
2023-12-03T01:48:47.603Z,14.77
2023-12-03T01:51:15.576Z,13.83
2023-12-03T01:53:43.978Z,14.53
2023-12-03T01:56:12.932Z,15.03
2023-12-03T01:58:42.946Z,15.47
2023-12-03T02:01:10.951Z,15.07
2023-12-03T02:03:38.714Z,13.57
2023-12-03T02:06:08.907Z,14.90
2023-12-03T02:08:36.892Z,15.23
2023-12-03T02:11:05.265Z,14.37
2023-12-03T02:13:34.953Z,15.90
2023-12-03T02:16:02.663Z,15.43
2023-12-03T02:18:31.280Z,16.23
2023-12-03T02:20:59.093Z,15.73
2023-12-03T02:23:30.716Z,16.77
2023-12-03T02:25:58.604Z,15.60
2023-12-03T02:28:26.518Z,15.27
2023-12-03T02:30:54.374Z,14.63
2023-12-03T02:33:22.226Z,15.90
2023-12-03T02:35:49.999Z,14.13
2023-12-03T02:38:17.936Z,14.83
2023-12-03T02:40:47.172Z,16.53
2023-12-03T02:43:14.931Z,14.43
2023-12-03T02:45:42.708Z,16.60
2023-12-03T02:48:10.636Z,14.73
2023-12-03T02:50:38.520Z,15.20
2023-12-03T02:53:06.337Z,15.03
2023-12-03T02:55:34.092Z,14.17
2023-12-03T02:58:03.259Z,15.13
2023-12-03T03:00:30.993Z,14.73
2023-12-03T03:02:58.727Z,16.03
2023-12-03T03:05:26.607Z,15.83
2023-12-03T03:07:55.082Z,19.25
2023-12-03T03:10:22.825Z,15.60
2023-12-03T03:12:50.649Z,13.40
2023-12-03T03:15:20.202Z,15.03
2023-12-03T03:17:48.077Z,14.33
2023-12-03T03:20:17.058Z,15.57
2023-12-03T03:22:44.868Z,14.13
2023-12-03T03:25:13.206Z,16.07
2023-12-03T03:27:41.056Z,14.47
2023-12-03T03:30:10.345Z,14.23
2023-12-03T03:32:39.853Z,14.10
2023-12-03T03:35:08.729Z,13.80
2023-12-03T03:37:36.654Z,13.53
2023-12-03T03:40:05.610Z,13.10
2023-12-03T03:42:33.633Z,16.30
2023-12-03T03:45:01.905Z,14.10
2023-12-03T03:47:30.392Z,13.90
2023-12-03T03:49:59.772Z,14.67
2023-12-03T03:52:27.966Z,13.97
2023-12-03T03:54:55.888Z,13.77
2023-12-03T03:57:23.901Z,13.63
2023-12-03T03:59:52.584Z,13.63
2023-12-03T04:02:20.531Z,14.60
2023-12-03T04:04:48.567Z,13.23
2023-12-03T04:07:18.094Z,13.47
2023-12-03T04:09:47.287Z,13.20
2023-12-03T04:12:15.347Z,13.93
2023-12-03T04:14:43.538Z,13.20
2023-12-03T04:17:11.526Z,13.23
2023-12-03T04:19:39.719Z,13.03
2023-12-03T04:22:07.686Z,14.13
2023-12-03T04:24:37.179Z,13.33
2023-12-03T04:27:05.859Z,13.50
2023-12-03T04:29:33.831Z,11.87
2023-12-03T04:32:01.866Z,13.53
2023-12-03T04:34:29.771Z,12.93
2023-12-03T04:36:58.050Z,13.13
2023-12-03T04:39:26.051Z,13.20
2023-12-03T04:41:55.527Z,12.07
2023-12-03T04:44:23.546Z,12.60
2023-12-03T04:46:51.591Z,14.03
2023-12-03T04:49:19.539Z,12.20
2023-12-03T04:51:47.835Z,12.80
2023-12-03T04:54:15.889Z,11.77
2023-12-03T04:56:44.720Z,11.90
2023-12-03T04:59:14.166Z,12.10
2023-12-03T05:01:42.206Z,11.83
2023-12-03T05:04:10.332Z,11.47
2023-12-03T05:06:38.532Z,12.07
2023-12-03T05:09:07.136Z,11.43
2023-12-03T05:11:36.722Z,12.00
2023-12-03T05:14:04.995Z,11.30
2023-12-03T05:16:34.735Z,10.40
2023-12-03T05:19:02.800Z,10.53
2023-12-03T05:21:31.050Z,9.83
2023-12-03T05:23:59.878Z,10.37
2023-12-03T05:26:27.759Z,9.47
2023-12-03T05:28:55.630Z,9.83
2023-12-03T05:31:23.548Z,11.03
2023-12-03T05:33:53.051Z,10.47
2023-12-03T05:36:22.112Z,10.80
2023-12-03T05:38:50.215Z,9.53
2023-12-03T05:41:18.460Z,9.10
2023-12-03T05:43:46.524Z,10.07
2023-12-03T05:46:14.527Z,9.43
2023-12-03T05:48:43.756Z,8.87
2023-12-03T05:51:13.259Z,10.00
2023-12-03T05:53:41.368Z,9.63
2023-12-03T05:56:12.122Z,9.30
2023-12-03T05:58:40.006Z,8.73
2023-12-03T06:01:08.463Z,8.60
2023-12-03T06:03:36.605Z,9.33
2023-12-03T06:06:04.900Z,9.27
2023-12-03T06:08:34.328Z,9.00
2023-12-03T06:11:02.302Z,9.13
2023-12-03T06:13:30.243Z,9.90
2023-12-03T06:15:58.149Z,9.03
2023-12-03T06:18:30.360Z,8.93
2023-12-03T06:20:58.159Z,9.20
2023-12-03T06:23:25.929Z,10.00
2023-12-03T06:25:55.041Z,9.10
2023-12-03T06:28:22.754Z,8.90
2023-12-03T06:30:50.579Z,8.80
2023-12-03T06:33:23.565Z,8.20
2023-12-03T06:35:51.924Z,9.03
2023-12-03T06:38:19.701Z,8.10
2023-12-03T06:40:47.475Z,9.67
2023-12-03T06:43:16.625Z,8.13
2023-12-03T06:45:44.333Z,9.07
2023-12-03T06:48:12.268Z,7.77
2023-12-03T06:50:41.274Z,8.13
2023-12-03T06:53:10.257Z,8.63
2023-12-03T06:55:37.906Z,9.10
2023-12-03T06:58:05.631Z,9.47
2023-12-03T07:00:35.022Z,8.30
2023-12-03T07:03:02.804Z,9.37
2023-12-03T07:05:30.437Z,8.13
2023-12-03T07:07:58.790Z,6.67
2023-12-03T07:10:26.424Z,9.37
2023-12-03T07:12:55.271Z,9.03
2023-12-03T07:15:25.296Z,8.97
2023-12-03T07:17:54.289Z,8.23
2023-12-03T07:20:22.096Z,8.57
2023-12-03T07:22:49.719Z,8.60
2023-12-03T07:25:18.112Z,8.40
2023-12-03T07:30:20.080Z,8.33
2023-12-03T07:32:47.890Z,8.53
2023-12-03T07:35:16.959Z,8.23
2023-12-03T07:37:44.688Z,7.70
2023-12-03T07:40:12.666Z,11.50
2023-12-03T07:42:41.870Z,7.97
2023-12-03T07:45:10.526Z,8.30
2023-12-03T07:47:38.313Z,8.47
2023-12-03T07:50:06.748Z,8.07
2023-12-03T07:52:35.919Z,7.37
2023-12-03T07:55:03.577Z,8.20
2023-12-03T07:57:31.448Z,8.00
2023-12-03T07:59:59.288Z,9.37
2023-12-03T08:02:27.016Z,8.03
2023-12-03T08:04:54.702Z,8.83
2023-12-03T08:07:22.723Z,7.73
2023-12-03T08:09:52.884Z,7.43
2023-12-03T08:12:20.723Z,7.23
2023-12-03T08:14:48.688Z,7.73
2023-12-03T08:17:16.456Z,8.00
2023-12-03T08:19:44.279Z,7.90
2023-12-03T08:22:12.987Z,7.57
2023-12-03T08:24:40.842Z,8.23
2023-12-03T08:27:10.102Z,8.50
2023-12-03T08:29:37.752Z,8.10
2023-12-03T08:32:06.092Z,7.80
2023-12-03T08:34:34.590Z,7.70
2023-12-03T08:37:09.661Z,8.07
2023-12-03T08:39:37.365Z,7.53
2023-12-03T08:42:05.789Z,7.57
2023-12-03T08:44:35.744Z,8.13
2023-12-03T08:47:05.799Z,7.90
2023-12-03T08:49:33.502Z,7.43
2023-12-03T08:52:03.376Z,7.47
2023-12-03T08:54:31.798Z,7.80
2023-12-03T08:57:00.201Z,8.33
2023-12-03T08:59:27.827Z,9.63
2023-12-03T09:01:56.958Z,8.50
2023-12-03T09:04:24.651Z,8.37
2023-12-03T09:06:52.356Z,8.43
2023-12-03T09:09:20.177Z,8.17
2023-12-03T09:11:47.824Z,7.57
2023-12-03T09:14:15.593Z,8.30
2023-12-03T09:16:43.419Z,7.90
2023-12-03T09:19:12.804Z,8.47
2023-12-03T09:21:40.755Z,8.93
2023-12-03T09:24:08.820Z,9.37
2023-12-03T09:26:36.644Z,9.13
2023-12-03T09:29:04.439Z,8.83
2023-12-03T09:31:32.350Z,8.73
2023-12-03T09:34:00.277Z,10.83
2023-12-03T09:36:30.658Z,8.80
2023-12-03T09:38:58.499Z,7.97
2023-12-03T09:41:26.487Z,9.00
2023-12-03T09:43:56.276Z,8.33
2023-12-03T09:46:25.116Z,8.30
2023-12-03T09:48:53.156Z,8.37
2023-12-03T09:51:21.022Z,9.93
2023-12-03T09:53:50.251Z,9.03
2023-12-03T09:56:20.300Z,9.80
2023-12-03T09:58:48.895Z,9.50
2023-12-03T10:01:16.780Z,9.53
2023-12-03T10:03:44.925Z,9.60
2023-12-03T10:06:13.010Z,9.87
2023-12-03T10:08:42.150Z,9.37
2023-12-03T10:11:11.941Z,10.23
2023-12-03T10:13:39.954Z,9.33
2023-12-03T10:16:10.434Z,8.97
2023-12-03T10:18:38.398Z,9.97
2023-12-03T10:21:07.603Z,9.47
2023-12-03T10:23:35.973Z,10.27
2023-12-03T10:26:16.214Z,9.63
2023-12-03T10:28:44.030Z,10.07
2023-12-03T10:31:12.980Z,10.07
2023-12-03T10:33:40.916Z,9.97
2023-12-03T10:36:10.524Z,9.90
2023-12-03T10:38:38.868Z,11.93
2023-12-03T10:41:08.435Z,9.77
2023-12-03T10:43:38.303Z,10.35
2023-12-03T10:46:07.222Z,9.30
2023-12-03T10:48:36.169Z,10.45
2023-12-03T10:51:05.896Z,9.70
2023-12-03T10:53:34.109Z,10.45
2023-12-03T10:56:03.025Z,9.60
2023-12-03T10:58:31.925Z,10.82
2023-12-03T11:01:08.246Z,9.63
2023-12-03T11:03:44.442Z,10.32
2023-12-03T11:06:12.379Z,10.35
2023-12-03T11:08:40.225Z,8.88
2023-12-03T11:11:09.476Z,9.90
2023-12-03T11:13:44.097Z,9.83
2023-12-03T11:16:16.094Z,9.27
2023-12-03T11:18:45.598Z,9.80
2023-12-03T11:21:16.912Z,9.23
2023-12-03T11:23:55.845Z,10.00
2023-12-03T11:26:25.040Z,9.60
2023-12-03T11:28:57.394Z,9.47
2023-12-03T11:31:27.673Z,9.27
2023-12-03T11:33:57.963Z,9.50
2023-12-03T11:36:36.736Z,9.33
2023-12-03T11:39:04.782Z,9.40
2023-12-03T11:41:39.300Z,9.17
2023-12-03T11:44:19.531Z,9.55
2023-12-03T11:46:49.904Z,9.80
2023-12-03T11:49:18.018Z,10.35
2023-12-03T11:51:47.605Z,9.68
2023-12-03T11:54:17.347Z,9.75
2023-12-03T11:56:45.838Z,10.63
2023-12-03T11:59:14.548Z,9.50
2023-12-03T12:01:42.267Z,10.00
2023-12-03T12:04:11.502Z,9.88
2023-12-03T12:06:39.383Z,9.88
2023-12-03T12:09:12.187Z,10.00
2023-12-03T12:11:39.896Z,9.82
2023-12-03T12:14:08.216Z,9.25
2023-12-03T12:16:38.117Z,9.30
2023-12-03T12:19:06.494Z,9.93
2023-12-03T12:21:35.764Z,10.25
2023-12-03T12:24:03.522Z,10.27
2023-12-03T12:26:31.224Z,10.93
2023-12-03T12:29:00.706Z,11.57
2023-12-03T12:31:28.802Z,10.13
2023-12-03T12:33:57.635Z,9.53
2023-12-03T12:36:25.330Z,9.47
2023-12-03T12:38:54.353Z,11.27
2023-12-03T12:41:22.398Z,9.47
2023-12-03T12:43:54.827Z,9.80
2023-12-03T12:46:22.460Z,9.70
2023-12-03T12:48:50.176Z,9.70
2023-12-03T12:51:22.386Z,10.13
2023-12-03T12:53:57.876Z,9.53
2023-12-03T12:56:25.557Z,9.90
2023-12-03T12:58:54.124Z,10.17
2023-12-03T13:01:21.803Z,10.60
2023-12-03T13:03:49.563Z,9.93
2023-12-03T13:06:17.371Z,10.17
2023-12-03T13:08:44.980Z,9.53
2023-12-03T13:11:13.937Z,9.93
2023-12-03T13:13:41.558Z,9.43
2023-12-03T13:16:10.029Z,9.57
2023-12-03T13:18:39.802Z,9.47
2023-12-03T13:21:08.318Z,8.83
2023-12-03T13:23:36.474Z,8.87
2023-12-03T13:26:04.162Z,9.50
2023-12-03T13:28:33.364Z,8.23
2023-12-03T13:31:01.804Z,8.87
2023-12-03T13:33:31.036Z,8.20
2023-12-03T13:35:59.041Z,9.00
2023-12-03T13:38:26.734Z,9.17
2023-12-03T13:40:56.043Z,8.30
2023-12-03T13:43:23.819Z,9.10
2023-12-03T13:45:53.512Z,9.00
2023-12-03T13:48:21.408Z,8.67
2023-12-03T13:50:49.118Z,8.77
2023-12-03T13:53:16.943Z,8.73
2023-12-03T13:55:44.533Z,9.30
2023-12-03T13:58:12.351Z,8.47
2023-12-03T14:00:40.327Z,8.97
2023-12-03T14:03:09.464Z,8.77
2023-12-03T14:05:37.229Z,8.97
2023-12-03T14:08:05.558Z,7.70
2023-12-03T14:10:33.271Z,8.60
2023-12-03T14:13:00.932Z,8.70
2023-12-03T14:15:29.160Z,8.13
2023-12-03T14:17:57.062Z,8.90
2023-12-03T14:20:26.216Z,9.93
2023-12-03T14:22:55.488Z,8.97
2023-12-03T14:25:23.231Z,9.03
2023-12-03T14:27:51.135Z,8.77
2023-12-03T14:30:19.385Z,8.23
2023-12-03T14:32:47.171Z,8.80
2023-12-03T14:35:14.917Z,9.77
2023-12-03T14:37:44.125Z,9.27
2023-12-03T14:40:14.928Z,8.80
2023-12-03T14:42:43.044Z,9.93
2023-12-03T14:45:12.136Z,9.60
2023-12-03T14:47:41.325Z,8.30
2023-12-03T14:50:09.781Z,11.23
2023-12-03T14:52:37.640Z,9.97
2023-12-03T14:55:08.024Z,8.07
2023-12-03T14:57:37.007Z,9.60
2023-12-03T15:00:06.998Z,11.93
2023-12-03T15:02:34.810Z,11.10
2023-12-03T15:05:05.160Z,10.60
2023-12-03T15:07:34.333Z,11.43
2023-12-03T15:10:03.279Z,8.70
2023-12-03T15:12:34.077Z,10.93
2023-12-03T15:15:02.405Z,12.03
2023-12-03T15:17:31.168Z,10.90
2023-12-03T15:19:59.120Z,11.77
2023-12-03T15:22:27.014Z,13.07
2023-12-03T15:24:55.025Z,12.30
2023-12-03T15:27:25.013Z,9.87
2023-12-03T15:29:54.061Z,11.03
2023-12-03T15:32:23.724Z,11.63
2023-12-03T15:34:51.664Z,12.17
2023-12-03T15:37:19.548Z,11.83
2023-12-03T15:39:47.228Z,11.43
2023-12-03T15:42:14.926Z,10.83
2023-12-03T15:44:42.666Z,9.40
2023-12-03T15:47:11.857Z,11.70
2023-12-03T15:49:39.662Z,10.90
2023-12-03T15:52:08.440Z,9.07
2023-12-03T15:54:36.217Z,10.70
2023-12-03T15:57:03.968Z,9.73
2023-12-03T15:59:31.842Z,11.87
2023-12-03T16:02:00.633Z,10.13
2023-12-03T16:04:29.701Z,8.10
2023-12-03T16:06:59.173Z,9.63
2023-12-03T16:09:26.916Z,10.40
2023-12-03T16:11:57.106Z,9.17
2023-12-03T16:14:24.902Z,11.27
2023-12-03T16:16:54.990Z,9.77
2023-12-03T16:19:24.378Z,7.77
2023-12-03T16:21:54.645Z,9.07
2023-12-03T16:24:22.890Z,11.00
2023-12-03T16:26:51.925Z,9.37
2023-12-03T16:29:19.999Z,10.87
2023-12-03T16:31:47.925Z,7.70
2023-12-03T16:34:17.457Z,8.33
2023-12-03T16:36:46.573Z,9.67
2023-12-03T16:39:16.048Z,10.03
2023-12-03T16:41:44.530Z,6.73
2023-12-03T16:44:12.360Z,9.77
2023-12-03T16:46:40.351Z,9.17
2023-12-03T16:49:08.298Z,9.87
2023-12-03T16:51:37.885Z,10.47
2023-12-03T16:54:06.608Z,8.97
2023-12-03T16:56:36.916Z,10.33
2023-12-03T16:59:05.101Z,9.20
2023-12-03T17:01:33.173Z,8.73
2023-12-03T17:04:00.996Z,8.90
2023-12-03T17:06:29.195Z,8.67
2023-12-03T17:08:57.337Z,9.60
2023-12-03T17:11:26.269Z,11.57
2023-12-03T17:13:55.792Z,7.27
2023-12-03T17:16:25.643Z,9.23
2023-12-03T17:18:54.055Z,11.43
2023-12-03T17:21:22.644Z,10.47
2023-12-03T17:23:51.261Z,11.00
2023-12-03T17:26:20.819Z,8.90
2023-12-03T17:28:48.826Z,9.60
2023-12-03T17:31:17.988Z,8.70
2023-12-03T17:33:46.232Z,10.37
2023-12-03T17:36:14.376Z,9.93
2023-12-03T17:38:42.112Z,9.50
2023-12-03T17:41:09.945Z,8.50
2023-12-03T17:43:37.647Z,10.13
2023-12-03T17:46:06.057Z,9.10
2023-12-03T17:48:35.598Z,11.27
2023-12-03T17:51:03.398Z,11.10
2023-12-03T17:53:31.163Z,10.03
2023-12-03T17:56:01.965Z,9.67
2023-12-03T17:58:30.111Z,10.33
2023-12-03T18:00:58.028Z,12.33
2023-12-03T18:03:26.152Z,10.33
2023-12-03T18:05:56.195Z,10.30
2023-12-03T18:08:27.972Z,9.87
2023-12-03T18:10:57.582Z,9.30
2023-12-03T18:13:25.815Z,10.93
2023-12-03T18:15:54.388Z,10.03
2023-12-03T18:18:23.329Z,9.63
2023-12-03T18:21:00.963Z,9.60
2023-12-03T18:23:30.573Z,10.93
2023-12-03T18:25:59.152Z,7.73
2023-12-03T18:28:27.269Z,7.47
2023-12-03T18:30:55.852Z,9.87
2023-12-03T18:33:24.233Z,10.17
2023-12-03T18:35:53.334Z,10.33
2023-12-03T18:38:22.542Z,10.30
2023-12-03T18:40:54.355Z,10.03
2023-12-03T18:43:23.839Z,9.47
2023-12-03T18:45:52.060Z,10.23
2023-12-03T18:48:20.129Z,8.43
2023-12-03T18:50:50.948Z,12.60
2023-12-03T18:53:18.782Z,10.57
2023-12-03T18:55:52.056Z,12.57
2023-12-03T18:58:20.241Z,13.17
2023-12-03T19:00:48.239Z,13.00
2023-12-03T19:03:16.327Z,6.57
2023-12-03T19:05:44.073Z,9.63
2023-12-03T19:08:12.188Z,11.40
2023-12-03T19:10:39.877Z,10.53
2023-12-03T19:13:16.414Z,11.07
2023-12-03T19:15:47.842Z,9.07
2023-12-03T19:18:15.871Z,11.50
2023-12-03T19:20:43.856Z,12.90
2023-12-03T19:23:11.560Z,8.93
2023-12-03T19:25:39.373Z,12.17
2023-12-03T19:28:07.209Z,7.73
2023-12-03T19:30:38.381Z,10.63
2023-12-03T19:33:07.211Z,10.43
2023-12-03T19:35:35.610Z,10.67
2023-12-03T19:38:03.398Z,10.73
2023-12-03T19:40:31.174Z,6.27
2023-12-03T19:42:58.917Z,10.70
2023-12-03T19:45:26.962Z,10.13
2023-12-03T19:47:56.382Z,9.93
2023-12-03T19:50:25.084Z,10.20
2023-12-03T19:55:27.185Z,9.33
2023-12-03T19:58:01.791Z,8.77
2023-12-03T20:00:29.589Z,8.67
2023-12-03T20:02:58.916Z,8.27
2023-12-03T20:05:26.680Z,7.37
2023-12-03T20:07:54.661Z,8.40
2023-12-03T20:10:23.483Z,9.33
2023-12-03T20:12:52.458Z,6.43
2023-12-03T20:15:25.301Z,9.03
2023-12-03T20:17:57.840Z,8.87
2023-12-03T20:20:25.550Z,6.83
2023-12-03T20:22:54.272Z,6.83
2023-12-03T20:25:22.868Z,6.00
2023-12-03T20:27:50.719Z,8.20
2023-12-03T20:30:18.830Z,8.73
2023-12-03T20:32:48.144Z,9.17
2023-12-03T20:35:17.416Z,7.93
2023-12-03T20:37:45.133Z,8.53
2023-12-03T20:40:13.896Z,8.17
2023-12-03T20:42:42.114Z,9.20
2023-12-03T20:45:11.775Z,10.10
2023-12-03T20:47:39.451Z,9.97
2023-12-03T20:50:07.801Z,9.27
2023-12-03T20:52:36.900Z,7.57
2023-12-03T20:55:05.025Z,9.43
2023-12-03T20:57:32.925Z,9.00
2023-12-03T21:00:01.000Z,8.43
2023-12-03T21:02:28.613Z,8.77
2023-12-03T21:04:56.268Z,7.70
2023-12-03T21:07:24.039Z,7.80
2023-12-03T21:10:11.404Z,8.17
2023-12-03T21:12:39.238Z,8.83
2023-12-03T21:15:08.723Z,8.93
2023-12-03T21:17:36.433Z,14.47
2023-12-03T21:20:04.207Z,9.10
2023-12-03T21:22:31.830Z,9.03
2023-12-03T21:24:59.577Z,8.63
2023-12-03T21:27:28.620Z,8.33
2023-12-03T21:29:56.393Z,7.23
2023-12-03T21:32:26.435Z,7.43
2023-12-03T21:34:54.975Z,8.77
2023-12-03T21:37:22.752Z,7.60
2023-12-03T21:39:50.560Z,9.57
2023-12-03T21:42:18.425Z,9.03
2023-12-03T21:44:47.674Z,9.00
2023-12-03T21:47:15.419Z,10.23
2023-12-03T21:49:43.782Z,15.07
2023-12-03T21:52:11.460Z,9.67
2023-12-03T21:54:39.243Z,10.20
2023-12-03T21:57:06.863Z,8.53
2023-12-03T21:59:34.505Z,9.50
2023-12-03T22:02:03.602Z,9.37
2023-12-03T22:04:31.426Z,9.33
2023-12-03T22:07:01.561Z,9.33
2023-12-03T22:09:29.414Z,8.90
2023-12-03T22:11:57.071Z,9.27
2023-12-03T22:14:24.710Z,8.27
2023-12-03T22:16:53.695Z,7.20
2023-12-03T22:19:22.805Z,7.97
2023-12-03T22:21:50.638Z,9.07
2023-12-03T22:24:18.443Z,9.40
2023-12-03T22:26:46.107Z,8.67
2023-12-03T22:29:18.155Z,9.27
2023-12-03T22:31:50.727Z,7.43
2023-12-03T22:34:18.406Z,9.00
2023-12-03T22:36:47.684Z,7.60
2023-12-03T22:39:15.491Z,7.20
2023-12-03T22:41:43.106Z,9.00
2023-12-03T22:44:12.048Z,8.33
2023-12-03T22:46:39.756Z,10.10
2023-12-03T22:49:07.495Z,8.73
2023-12-03T22:51:35.699Z,8.87
2023-12-03T22:54:04.914Z,8.47
2023-12-03T22:56:32.551Z,7.97
2023-12-03T22:59:00.569Z,9.30
2023-12-03T23:01:28.670Z,8.77
2023-12-03T23:03:56.456Z,8.53
2023-12-03T23:06:31.570Z,10.37
2023-12-03T23:09:00.386Z,9.70
2023-12-03T23:11:29.472Z,9.87
2023-12-03T23:13:58.808Z,10.93
2023-12-03T23:16:27.842Z,8.43
2023-12-03T23:18:55.857Z,9.47
2023-12-03T23:21:23.538Z,9.10
2023-12-03T23:23:51.195Z,10.00
2023-12-03T23:26:18.779Z,9.63
2023-12-03T23:28:48.567Z,9.60
2023-12-03T23:31:16.381Z,7.87
2023-12-03T23:33:44.197Z,8.23
2023-12-03T23:36:13.529Z,10.80
2023-12-03T23:38:41.786Z,9.30
2023-12-03T23:41:09.758Z,9.27
2023-12-03T23:43:37.485Z,9.30
2023-12-03T23:46:07.674Z,6.43
2023-12-03T23:48:35.425Z,8.87
2023-12-03T23:51:03.145Z,7.20
2023-12-03T23:53:30.903Z,8.90
2023-12-03T23:55:58.629Z,9.17
2023-12-03T23:58:26.326Z,8.27
